Time;durP1;ratioP1;P1;durP2;ratioP2;P2;SDS_P1;SDS_P2;PMS_P1;PMS_P2;Temp;Humidity;BMP_temperature;BMP_pressure;BME280_temperature;BME280_humidity;BME280_pressure;Samples;Min_cycle;Max_cycle;Signal;HPM_P1;HPM_P2
2022/11/12 00:00:29;;;;;;;6.80;6.30;;;;;;;21.64;40.21;96376.53;6178026;28;102530;-80
2022/11/12 00:03:32;;;;;;;7.50;6.90;;;;;;;21.65;39.83;96377.31;6175576;28;103671;-81
2022/11/12 00:06:37;;;;;;;6.47;5.90;;;;;;;21.66;40.13;96373.59;6173326;28;103281;-80
2022/11/12 00:09:40;;;;;;;7.17;6.57;;;;;;;21.66;40.27;96354.94;6165748;28;103244;-81
2022/11/12 00:12:43;;;;;;;6.73;6.13;;;;;;;21.67;40.49;96356.53;6172867;28;103808;-81
2022/11/12 00:15:47;;;;;;;6.77;6.27;;;;;;;21.65;40.49;96354.16;6172990;28;103349;-81
2022/11/12 00:18:50;;;;;;;6.67;6.07;;;;;;;21.64;40.06;96354.41;6169584;28;103514;-81
2022/11/12 00:21:55;;;;;;;6.70;6.10;;;;;;;21.64;40.37;96354.41;6169423;28;104345;-81
2022/11/12 00:24:59;;;;;;;6.77;6.23;;;;;;;21.67;39.83;96362.66;6172085;28;103219;-80
2022/11/12 00:28:03;;;;;;;7.03;6.50;;;;;;;21.67;40.22;96364.53;6172725;28;103219;-81
2022/11/12 00:31:11;;;;;;;6.80;6.30;;;;;;;21.66;39.99;96368.25;6165346;28;103209;-82
2022/11/12 00:34:14;;;;;;;7.23;6.60;;;;;;;21.64;40.33;96365.88;6172920;28;103961;-82
2022/11/12 00:37:21;;;;;;;7.43;6.83;;;;;;;21.66;39.80;96365.59;6172909;28;102836;-82
2022/11/12 00:40:25;;;;;;;7.30;6.70;;;;;;;21.67;39.99;96357.34;6172143;28;104407;-82
2022/11/12 00:43:29;;;;;;;7.17;6.57;;;;;;;21.66;39.84;96365.59;6166416;28;103187;-83
2022/11/12 00:46:32;;;;;;;8.07;7.40;;;;;;;21.67;40.12;96364.53;6172774;28;103206;-83
2022/11/12 00:49:35;;;;;;;7.70;7.10;;;;;;;21.67;39.96;96373.31;6172744;28;103122;-82
2022/11/12 00:52:40;;;;;;;6.80;6.30;;;;;;;21.68;40.35;96371.47;6171358;28;104407;-82
2022/11/12 00:55:43;;;;;;;7.30;6.60;;;;;;;21.69;40.21;96359.75;6168553;28;103053;-81
2022/11/12 00:58:46;;;;;;;6.87;6.27;;;;;;;21.70;40.01;96361.34;6173177;28;102728;-82
2022/11/12 01:01:50;;;;;;;7.07;6.53;;;;;;;21.69;39.96;96357.88;6172531;28;104202;-82
2022/11/12 01:04:53;;;;;;;6.80;6.23;;;;;;;21.68;39.69;96334.19;6167891;28;104317;-82
2022/11/12 01:07:58;;;;;;;7.20;6.60;;;;;;;21.71;39.92;96333.63;6172210;28;103213;-81
2022/11/12 01:11:08;;;;;;;7.00;6.40;;;;;;;21.69;40.02;96333.91;6172062;28;102656;-81
2022/11/12 01:14:12;;;;;;;7.23;6.63;;;;;;;21.69;40.22;96338.44;6171970;28;103409;-81
2022/11/12 01:17:15;;;;;;;7.33;6.67;;;;;;;21.69;39.76;96341.09;6164418;28;103206;-81
2022/11/12 01:20:18;;;;;;;6.47;5.93;;;;;;;21.66;40.26;96336.28;6173134;28;103046;-82
2022/11/12 01:23:23;;;;;;;7.07;6.47;;;;;;;21.70;40.10;96342.69;6171618;28;103525;-82
2022/11/12 01:26:27;;;;;;;6.97;6.37;;;;;;;21.68;40.15;96348.31;6171752;28;103052;-81
2022/11/12 01:29:30;;;;;;;7.83;7.03;;;;;;;21.68;40.20;96353.63;6164085;28;103296;-81
2022/11/12 01:32:36;;;;;;;6.80;6.30;;;;;;;21.69;40.08;96333.91;6170381;28;103631;-82
2022/11/12 01:35:39;;;;;;;6.90;6.30;;;;;;;21.69;40.33;96341.09;6171876;28;107419;-82
2022/11/12 01:38:44;;;;;;;8.03;7.23;;;;;;;21.69;40.36;96335.78;6166765;28;103535;-81
2022/11/12 01:41:48;;;;;;;6.83;6.30;;;;;;;21.70;40.19;96326.72;6171821;28;103072;-82
2022/11/12 01:44:52;;;;;;;7.40;6.80;;;;;;;21.69;40.00;96317.13;6173986;28;103605;-82
2022/11/12 01:47:56;;;;;;;6.87;6.27;;;;;;;21.69;39.84;96317.94;6172932;28;103513;-82
2022/11/12 01:51:00;;;;;;;7.23;6.63;;;;;;;21.70;39.99;96321.38;6169792;28;103597;-83
2022/11/12 01:54:10;;;;;;;7.57;6.97;;;;;;;21.71;39.71;96328.31;6174743;28;102702;-81
2022/11/12 01:57:14;;;;;;;7.20;6.60;;;;;;;21.68;40.33;96323.53;6174238;28;103384;-84
2022/11/12 02:00:18;;;;;;;6.83;6.33;;;;;;;21.69;39.83;96315.25;6173552;28;103063;-81
2022/11/12 02:03:26;;;;;;;7.30;6.70;;;;;;;21.70;39.74;96313.41;6169122;28;103366;-83
2022/11/12 02:06:30;;;;;;;6.57;6.07;;;;;;;21.73;40.24;96320.84;6173623;28;103204;-82
2022/11/12 02:09:36;;;;;;;7.30;6.70;;;;;;;21.71;39.84;96318.44;6173197;28;103681;-83
2022/11/12 02:15:56;;;;;;;6.90;6.30;;;;;;;21.70;40.06;96322.19;6128648;28;104228;-82
2022/11/12 02:18:59;;;;;;;7.23;6.53;;;;;;;21.71;40.14;96323.78;6173160;28;105189;-82
2022/11/12 02:22:04;;;;;;;7.23;6.63;;;;;;;21.73;39.92;96326.16;6172965;28;104696;-82
2022/11/12 02:25:12;;;;;;;6.23;5.73;;;;;;;21.73;40.05;96328.84;6165823;28;103157;-83
2022/11/12 02:28:16;;;;;;;6.40;5.90;;;;;;;21.69;39.86;96317.94;6173776;28;104304;-82
2022/11/12 02:31:20;;;;;;;6.17;5.67;;;;;;;21.74;39.85;96323.22;6173452;28;103342;-83
2022/11/12 02:34:23;;;;;;;7.90;7.30;;;;;;;21.75;39.70;96326.69;6174637;28;103081;-83
2022/11/12 02:37:27;;;;;;;7.23;6.63;;;;;;;21.68;39.86;96318.19;6171522;28;104912;-83
2022/11/12 02:40:31;;;;;;;6.60;6.10;;;;;;;21.73;39.79;96329.63;6176119;28;104348;-83
2022/11/12 02:43:34;;;;;;;6.80;6.27;;;;;;;21.73;40.06;96326.16;6175650;28;103812;-82
2022/11/12 02:46:37;;;;;;;6.80;6.20;;;;;;;21.74;39.97;96331.22;6173250;28;103107;-83
2022/11/12 02:49:40;;;;;;;7.10;6.50;;;;;;;21.76;39.61;96328.28;6169899;28;105110;-79
2022/11/12 02:52:45;;;;;;;6.57;5.97;;;;;;;21.76;39.79;96328.28;6173439;28;102884;-79
2022/11/12 02:55:48;;;;;;;7.23;6.63;;;;;;;21.76;39.65;96317.63;6173026;28;103560;-79
2022/11/12 02:58:51;;;;;;;6.80;6.20;;;;;;;21.76;39.67;96314.97;6165711;28;102962;-79
2022/11/12 03:01:54;;;;;;;6.77;6.20;;;;;;;21.75;39.45;96305.38;6175562;28;103831;-81
2022/11/12 03:04:58;;;;;;;7.10;6.50;;;;;;;21.76;39.52;96313.09;6175021;28;102680;-81
2022/11/12 03:08:05;;;;;;;6.67;6.17;;;;;;;21.76;39.55;96314.97;6175394;28;103485;-81
2022/11/12 03:11:09;;;;;;;6.63;6.10;;;;;;;21.76;39.92;96309.63;6171244;28;103157;-80
2022/11/12 03:14:13;;;;;;;7.30;6.70;;;;;;;21.75;39.53;96316.81;6175710;28;102538;-81
2022/11/12 03:17:16;;;;;;;6.27;5.77;;;;;;;21.75;39.75;96322.16;6175627;28;102880;-81
2022/11/12 03:20:19;;;;;;;6.60;6.10;;;;;;;21.75;39.31;96313.38;6173735;28;102985;-82
2022/11/12 03:23:24;;;;;;;7.57;6.87;;;;;;;21.76;39.34;96315.75;6172812;28;104288;-81
2022/11/12 03:26:27;;;;;;;6.83;6.23;;;;;;;21.78;39.52;96320.81;6175572;28;104630;-81
2022/11/12 03:29:38;;;;;;;6.77;6.20;;;;;;;21.75;39.44;96308.84;6176262;28;103984;-81
2022/11/12 03:32:41;;;;;;;6.90;6.30;;;;;;;21.73;39.69;96312.84;6169400;28;103275;-81
2022/11/12 03:35:44;;;;;;;6.37;5.87;;;;;;;21.76;39.36;96322.94;6174652;28;103801;-81
2022/11/12 03:38:48;;;;;;;7.07;6.47;;;;;;;21.76;39.59;96326.41;6175012;28;106897;-81
2022/11/12 03:41:51;;;;;;;6.20;5.70;;;;;;;21.79;39.21;96325.06;6174747;28;105247;-81
2022/11/12 03:44:59;;;;;;;6.70;6.10;;;;;;;21.77;39.33;96328.00;6167949;28;105058;-80
2022/11/12 03:48:05;;;;;;;6.70;6.10;;;;;;;21.74;39.70;96314.44;6175628;28;102734;-81
2022/11/12 03:51:08;;;;;;;6.20;5.70;;;;;;;21.77;39.62;96317.34;6174182;28;105054;-79
2022/11/12 03:54:13;;;;;;;7.30;6.70;;;;;;;21.80;39.25;96321.34;6172908;28;104010;-81
2022/11/12 03:57:16;;;;;;;7.20;6.60;;;;;;;21.78;39.23;96326.94;6170602;28;105549;-80
2022/11/12 04:00:22;;;;;;;6.97;6.37;;;;;;;21.80;39.31;96329.31;6173856;28;104061;-80
2022/11/12 04:03:25;;;;;;;6.50;6.00;;;;;;;21.80;39.52;96334.66;6171912;28;104387;-79
2022/11/12 04:09:50;;;;;;;6.30;5.70;;;;;;;21.83;39.01;96325.34;6171990;28;103392;-79
2022/11/12 04:22:56;;;;;;;7.00;6.40;;;;;;;21.83;38.94;96310.16;6172523;28;103171;-80
2022/11/12 04:32:49;;;;;;;7.07;6.37;;;;;;;21.79;39.02;96293.88;6172715;28;102872;-80
2022/11/12 04:35:52;;;;;;;6.10;5.60;;;;;;;21.83;38.96;96290.72;6172451;28;105751;-80
2022/11/12 04:38:55;;;;;;;8.20;6.43;;;;;;;21.84;39.10;96301.09;6172421;28;102859;-80
2022/11/12 04:45:21;;;;;;;6.43;5.83;;;;;;;21.85;39.32;96308.03;6173502;28;103243;-79
2022/11/12 04:48:25;;;;;;;6.33;5.73;;;;;;;21.81;38.69;96296.28;6172746;28;106010;-80
2022/11/12 04:54:49;;;;;;;7.03;6.43;;;;;;;21.86;38.93;96311.50;6171075;28;104717;-79
2022/11/12 04:57:54;;;;;;;7.00;6.33;;;;;;;21.84;38.90;96309.09;6170357;28;102924;-80
2022/11/12 05:01:02;;;;;;;6.60;6.00;;;;;;;21.85;38.99;96315.25;6171026;28;102979;-80
2022/11/12 05:04:06;;;;;;;6.20;5.70;;;;;;;21.87;39.31;96319.22;6164494;28;103374;-80
2022/11/12 05:07:09;;;;;;;6.97;6.27;;;;;;;21.89;38.55;96333.06;6171965;28;102886;-79
2022/11/12 05:10:12;;;;;;;6.43;5.93;;;;;;;21.90;38.83;96334.66;6171287;28;104204;-80
2022/11/12 05:13:17;;;;;;;6.23;5.73;;;;;;;21.91;38.91;96330.94;6172675;28;103765;-79
2022/11/12 05:16:20;;;;;;;7.10;6.50;;;;;;;21.90;39.09;96337.31;6164932;28;104140;-80
2022/11/12 05:19:24;;;;;;;6.80;6.20;;;;;;;21.90;38.95;96342.66;6172074;28;105203;-80
2022/11/12 05:22:27;;;;;;;6.47;5.97;;;;;;;21.92;38.94;96348.50;6171159;28;102982;-82
2022/11/12 05:25:49;;;;;;;6.10;5.60;;;;;;;21.90;38.72;96342.66;6168572;28;103262;-81
2022/11/12 05:28:55;;;;;;;6.50;5.90;;;;;;;21.91;38.99;96348.78;6171783;28;105073;-81
2022/11/12 05:31:58;;;;;;;6.07;5.57;;;;;;;21.88;38.90;96336.81;6171964;28;104281;-81
2022/11/12 05:35:01;;;;;;;6.90;6.30;;;;;;;21.93;38.76;96342.09;6171142;28;103440;-81
2022/11/12 05:38:05;;;;;;;6.67;6.17;;;;;;;21.94;38.86;96349.03;6163534;28;104136;-81
2022/11/12 05:41:08;;;;;;;6.90;6.30;;;;;;;21.93;39.17;96347.44;6169411;28;103384;-81
2022/11/12 05:44:12;;;;;;;7.27;6.70;;;;;;;21.89;39.03;96346.41;6170043;28;104459;-81
2022/11/12 05:47:15;;;;;;;6.60;6.07;;;;;;;21.95;39.02;96353.28;6171569;28;103697;-82
2022/11/12 05:50:19;;;;;;;6.77;6.27;;;;;;;21.94;38.76;96350.91;6166315;28;103346;-82
2022/11/12 05:53:22;;;;;;;6.50;6.00;;;;;;;21.94;38.93;96348.22;6171635;28;102482;-82
2022/11/12 05:56:25;;;;;;;6.30;5.80;;;;;;;21.85;38.73;96334.69;6175077;28;102629;-81
2022/11/12 05:59:30;;;;;;;6.30;5.70;;;;;;;21.90;38.61;96339.19;6171893;28;102772;-82
2022/11/12 06:02:33;;;;;;;6.67;6.07;;;;;;;21.98;38.33;96359.94;6171500;28;102715;-81
2022/11/12 06:05:37;;;;;;;5.80;5.30;;;;;;;21.99;38.49;96361.53;6173442;28;105744;-81
2022/11/12 06:08:40;;;;;;;6.20;5.70;;;;;;;22.03;38.79;96366.06;6174414;28;103569;-81
2022/11/12 06:11:44;;;;;;;6.50;6.00;;;;;;;21.99;38.28;96361.53;6170499;28;107518;-81
2022/11/12 06:14:49;;;;;;;5.80;5.40;;;;;;;22.04;38.28;96370.31;6176633;28;102813;-80
2022/11/12 06:17:52;;;;;;;5.60;5.20;;;;;;;22.03;38.32;96368.72;6175638;28;103590;-81
2022/11/12 06:21:21;;;;;;;6.20;5.60;;;;;;;22.06;38.16;96362.84;6177773;28;102579;-81
2022/11/12 06:24:24;;;;;;;5.90;5.40;;;;;;;22.17;37.99;96360.13;6171081;28;103069;-81
2022/11/12 06:27:32;;;;;;;5.97;5.37;;;;;;;22.27;37.98;96355.56;6177243;28;103852;-83
2022/11/12 06:30:37;;;;;;;6.93;6.33;;;;;;;22.08;37.88;96350.03;6176583;28;103499;-81
2022/11/12 06:33:41;;;;;;;6.10;5.50;;;;;;;22.06;38.15;96362.84;6172787;28;104098;-82
2022/11/12 06:36:44;;;;;;;6.30;5.73;;;;;;;22.09;38.30;96372.16;6174747;28;107208;-81
2022/11/12 06:39:47;;;;;;;6.03;5.53;;;;;;;22.03;38.33;96365.28;6177406;28;105449;-80
2022/11/12 06:42:57;;;;;;;6.10;5.60;;;;;;;22.09;38.71;96377.50;6175172;28;103019;-80
2022/11/12 06:46:02;;;;;;;6.60;6.00;;;;;;;22.07;38.19;96376.97;6170815;28;103270;-80
2022/11/12 06:49:05;;;;;;;6.27;5.67;;;;;;;22.03;38.39;96367.94;6177170;28;106096;-81
2022/11/12 06:52:08;;;;;;;5.50;5.10;;;;;;;22.11;38.12;96380.69;6175667;28;106676;-82
2022/11/12 06:55:18;;;;;;;5.67;5.17;;;;;;;22.11;38.41;96380.69;6176795;28;107046;-82
2022/11/12 06:58:21;;;;;;;5.90;5.40;;;;;;;22.09;38.12;96374.84;6171937;28;104600;-81
2022/11/12 07:01:25;;;;;;;6.10;5.60;;;;;;;22.13;38.11;96386.53;6176964;28;103651;-81
2022/11/12 07:04:29;;;;;;;6.00;5.50;;;;;;;22.16;38.38;96375.31;6176570;28;105419;-82
2022/11/12 07:07:32;;;;;;;5.60;5.10;;;;;;;22.24;38.08;96368.66;6170254;28;103821;-81
2022/11/12 07:10:35;;;;;;;6.03;5.53;;;;;;;22.24;38.37;96369.44;6175129;28;103389;-82
2022/11/12 07:13:39;;;;;;;5.93;5.43;;;;;;;22.35;38.26;96375.53;6177691;28;103796;-82
2022/11/12 07:16:44;;;;;;;6.07;5.47;;;;;;;22.47;37.64;96381.31;6175744;28;104799;-80
2022/11/12 07:19:47;;;;;;;5.30;4.90;;;;;;;22.49;37.63;96381.84;6168301;28;102574;-81
2022/11/12 07:22:50;;;;;;;5.57;5.17;;;;;;;22.45;38.10;96382.66;6175374;28;104047;-81
2022/11/12 07:25:58;;;;;;;6.10;5.53;;;;;;;22.48;38.24;96377.56;6173976;28;103028;-80
2022/11/12 07:29:01;;;;;;;5.50;5.00;;;;;;;22.51;38.14;96368.22;6174582;28;105398;-81
2022/11/12 07:32:06;;;;;;;6.90;6.30;;;;;;;22.55;37.82;96374.63;6168123;28;104631;-80
2022/11/12 07:35:09;;;;;;;6.50;6.00;;;;;;;22.60;38.22;96369.28;6172995;28;103067;-80
2022/11/12 07:38:12;;;;;;;6.60;6.10;;;;;;;22.56;38.47;96382.34;6172698;28;102901;-81
2022/11/12 07:41:17;;;;;;;6.90;6.30;;;;;;;22.58;38.51;96379.44;6170151;28;106225;-82
2022/11/12 07:44:20;;;;;;;6.70;5.90;;;;;;;22.55;38.06;96378.09;6169302;28;107116;-82
2022/11/12 07:47:24;;;;;;;7.17;6.57;;;;;;;22.44;38.54;96368.53;6171469;28;103433;-81
2022/11/12 07:50:27;;;;;;;6.03;5.53;;;;;;;22.37;38.34;96362.72;6170750;28;103023;-81
2022/11/12 07:53:31;;;;;;;6.33;5.83;;;;;;;22.45;38.31;96378.13;6167401;28;105300;-82
2022/11/12 07:56:36;;;;;;;7.10;6.40;;;;;;;22.43;38.06;96380.28;6184675;28;104331;-82
2022/11/12 07:59:40;;;;;;;6.10;5.60;;;;;;;22.33;38.40;96370.44;6185490;28;102651;-81
2022/11/12 08:02:51;;;;;;;6.60;6.10;;;;;;;22.41;38.39;96390.44;6175212;28;102905;-82
2022/11/12 08:05:59;;;;;;;6.97;6.37;;;;;;;22.37;38.03;96387.53;6168706;28;102780;-82
2022/11/12 08:09:04;;;;;;;6.00;5.50;;;;;;;22.38;38.32;96397.13;6174913;28;104211;-82
2022/11/12 08:12:08;;;;;;;6.93;6.33;;;;;;;22.37;38.27;96392.06;6172876;28;103017;-81
2022/11/12 08:15:11;;;;;;;5.93;5.43;;;;;;;22.32;38.34;96392.06;6171767;28;103379;-82
2022/11/12 08:18:16;;;;;;;5.70;5.27;;;;;;;22.32;38.19;96392.84;6169940;28;104633;-80
2022/11/12 08:21:20;;;;;;;5.97;5.47;;;;;;;22.34;38.51;96401.38;6171976;28;103680;-80
2022/11/12 08:24:23;;;;;;;6.07;5.47;;;;;;;22.34;38.74;96404.03;6171817;28;103236;-79
2022/11/12 08:27:26;;;;;;;6.47;5.87;;;;;;;22.33;38.21;96407.78;6166503;28;103323;-80
2022/11/12 08:30:30;;;;;;;5.70;5.30;;;;;;;22.27;38.14;96392.88;6170716;28;102981;-80
2022/11/12 08:33:35;;;;;;;6.80;6.20;;;;;;;22.34;38.15;96405.91;6172854;28;103797;-81
2022/11/12 08:36:40;;;;;;;5.90;5.40;;;;;;;22.32;38.53;96408.06;6172259;28;105171;-80
2022/11/12 08:39:43;;;;;;;6.03;5.53;;;;;;;22.29;38.58;96400.59;6168778;28;103227;-80
2022/11/12 08:42:47;;;;;;;6.83;6.23;;;;;;;22.29;38.95;96400.59;6174483;28;103122;-82
2022/11/12 08:45:50;;;;;;;8.17;7.40;;;;;;;22.30;39.16;96410.22;6178978;28;102970;-82
2022/11/12 08:48:55;;;;;;;8.67;7.97;;;;;;;22.30;39.02;96402.19;6178449;28;104277;-83
2022/11/12 08:51:58;;;;;;;9.60;8.73;;;;;;;22.30;38.98;96410.22;6174184;28;104021;-82
2022/11/12 08:55:01;;;;;;;8.40;7.70;;;;;;;22.29;39.03;96401.41;6174820;28;105082;-81
2022/11/12 08:58:05;;;;;;;8.27;7.57;;;;;;;22.32;39.03;96410.72;6176349;28;104051;-80
2022/11/12 09:01:09;;;;;;;8.10;7.47;;;;;;;22.35;38.85;96402.19;6170712;28;103439;-81
2022/11/12 09:04:14;;;;;;;8.60;7.80;;;;;;;22.35;38.84;96395.00;6175861;28;106571;-81
2022/11/12 09:07:17;;;;;;;7.30;6.70;;;;;;;22.35;38.47;96408.34;6178784;28;103002;-81
2022/11/12 09:10:40;;;;;;;8.10;7.40;;;;;;;22.35;38.61;96395.00;6179072;28;104717;-81
2022/11/12 09:13:43;;;;;;;7.13;6.53;;;;;;;22.39;38.76;96400.56;6173731;28;102813;-81
2022/11/12 09:16:47;;;;;;;7.83;7.13;;;;;;;22.46;38.30;96400.25;6178581;28;103989;-82
2022/11/12 09:19:51;;;;;;;7.33;6.70;;;;;;;22.45;38.50;96402.13;6178637;28;102791;-81
2022/11/12 09:22:59;;;;;;;7.93;7.23;;;;;;;22.41;38.42;96395.75;6177170;28;103062;-83
2022/11/12 09:26:03;;;;;;;7.30;6.60;;;;;;;22.40;38.46;96394.97;6174405;28;102835;-80
2022/11/12 09:29:06;;;;;;;7.27;6.67;;;;;;;22.39;38.21;96400.56;6178542;28;103368;-81
2022/11/12 09:32:10;;;;;;;7.67;7.07;;;;;;;22.39;38.44;96397.91;6178227;28;105881;-81
2022/11/12 09:35:14;;;;;;;7.87;7.27;;;;;;;22.38;38.59;96401.66;6171383;28;103128;-82
2022/11/12 09:38:19;;;;;;;7.30;6.70;;;;;;;22.37;38.31;96400.06;6176194;28;107301;-80
2022/11/12 09:41:28;;;;;;;6.70;6.20;;;;;;;22.37;38.33;96400.84;6175541;28;103308;-81
2022/11/12 09:44:35;;;;;;;7.50;6.90;;;;;;;22.33;38.59;96398.97;6175519;28;102997;-81
2022/11/12 09:47:44;;;;;;;7.83;7.23;;;;;;;22.33;38.92;96401.66;6170384;28;103921;-80
2022/11/12 09:50:58;;;;;;;7.00;6.50;;;;;;;22.33;38.79;96393.66;6180193;28;104688;-81
2022/11/12 09:54:07;;;;;;;6.70;6.20;;;;;;;22.34;38.22;96400.56;6176324;28;102651;-80
2022/11/12 09:57:12;;;;;;;7.40;6.80;;;;;;;22.31;38.53;96398.47;6171797;28;105801;-81
2022/11/12 10:00:18;;;;;;;7.40;6.70;;;;;;;22.32;38.79;96394.72;6171761;28;103048;-79
2022/11/12 10:03:32;;;;;;;7.23;6.63;;;;;;;22.32;38.77;96403.53;6175659;28;102856;-79
2022/11/12 10:06:47;;;;;;;7.40;6.80;;;;;;;22.30;38.66;96396.88;6174688;28;103453;-80
2022/11/12 10:10:01;;;;;;;7.43;6.83;;;;;;;22.27;38.33;96397.41;6168077;28;106450;-81
2022/11/12 10:13:18;;;;;;;6.90;6.40;;;;;;;22.26;38.35;96393.97;6173346;28;104229;-80
2022/11/12 10:16:44;;;;;;;6.63;6.13;;;;;;;22.30;38.51;96405.66;6172586;28;105077;-80
2022/11/12 10:19:58;;;;;;;6.67;6.17;;;;;;;22.29;38.27;96398.75;6170875;28;105651;-81
2022/11/12 10:23:16;;;;;;;6.20;5.70;;;;;;;22.29;38.65;96395.28;6169921;28;102905;-80
2022/11/12 10:26:20;;;;;;;7.30;6.70;;;;;;;22.27;38.60;96394.75;6174609;28;103343;-79
2022/11/12 10:29:30;;;;;;;6.20;5.70;;;;;;;22.28;38.36;96399.00;6173631;28;104329;-80
2022/11/12 10:32:36;;;;;;;6.23;5.73;;;;;;;22.29;38.26;96397.94;6165197;28;104116;-80
2022/11/12 10:35:39;;;;;;;5.70;5.30;;;;;;;22.17;38.53;96384.13;6170594;28;103970;-80
2022/11/12 10:38:47;;;;;;;6.10;5.60;;;;;;;22.23;38.11;96401.72;6171494;28;104620;-79
2022/11/12 10:42:02;;;;;;;6.57;6.07;;;;;;;22.23;38.30;96405.19;6171102;28;103783;-80
2022/11/12 10:45:20;;;;;;;7.23;6.63;;;;;;;22.21;38.52;96399.31;6165298;28;104969;-80
2022/11/12 10:48:27;;;;;;;6.00;5.50;;;;;;;22.23;38.03;96394.50;6171757;28;102614;-80
2022/11/12 10:51:33;;;;;;;5.90;5.50;;;;;;;22.23;38.13;96404.38;6169805;28;107424;-78
2022/11/12 10:54:38;;;;;;;6.00;5.50;;;;;;;22.20;38.76;96392.41;6164383;28;103575;-80
2022/11/12 10:57:41;;;;;;;6.37;5.87;;;;;;;22.22;38.28;96395.59;6172872;28;103145;-78
2022/11/12 11:00:54;;;;;;;5.87;5.40;;;;;;;22.17;38.02;96392.13;6172803;28;103351;-80
2022/11/12 11:03:58;;;;;;;6.43;5.10;;;;;;;22.20;38.42;96397.72;6173259;28;103702;-80
2022/11/12 11:07:05;;;;;;;7.90;6.10;;;;;;;22.20;38.40;96394.25;6167509;28;102779;-79
2022/11/12 11:10:24;;;;;;;6.23;5.63;;;;;;;22.21;38.41;96401.19;6172869;28;103448;-80
2022/11/12 11:13:29;;;;;;;5.00;4.60;;;;;;;22.19;38.62;96392.66;6174016;28;104586;-79
2022/11/12 11:16:49;;;;;;;5.53;5.13;;;;;;;22.18;38.54;96391.03;6175700;28;102798;-81
2022/11/12 11:19:52;;;;;;;5.10;4.70;;;;;;;22.17;38.39;96386.78;6173815;28;103582;-80
2022/11/12 11:22:59;;;;;;;6.00;5.60;;;;;;;22.19;38.21;96387.34;6177593;28;102555;-81
2022/11/12 11:26:14;;;;;;;5.10;4.70;;;;;;;22.20;38.08;96388.94;6178081;28;105194;-80
2022/11/12 11:29:32;;;;;;;5.27;4.87;;;;;;;22.20;37.90;96381.72;6170602;28;104091;-81
2022/11/12 11:32:59;;;;;;;5.57;5.17;;;;;;;22.20;38.10;96380.94;6177129;28;106263;-81
2022/11/12 11:36:14;;;;;;;5.20;4.73;;;;;;;22.20;38.62;96381.72;6177099;28;103085;-80
2022/11/12 11:39:25;;;;;;;5.23;4.83;;;;;;;22.19;38.04;96384.66;6174003;28;102896;-80
2022/11/12 11:42:52;;;;;;;5.40;5.00;;;;;;;22.18;37.97;96378.53;6173845;28;103721;-80
2022/11/12 11:46:10;;;;;;;5.13;4.73;;;;;;;22.18;38.21;96378.53;6177049;28;106347;-79
2022/11/12 11:49:51;;;;;;;5.30;4.90;;;;;;;22.18;38.17;96378.53;6176518;28;106260;-80
2022/11/12 11:53:11;;;;;;;4.83;4.53;;;;;;;22.18;37.85;96383.03;6132140;28;103036;-81
2022/11/12 11:56:23;;;;;;;4.37;4.00;;;;;;;22.18;38.34;96375.88;6180270;28;102718;-81
2022/11/12 11:59:37;;;;;;;4.50;4.13;;;;;;;22.08;38.34;96366.03;6175990;28;102684;-80
2022/11/12 12:03:04;;;;;;;5.13;4.73;;;;;;;22.19;38.46;96384.66;6169520;28;102709;-80
2022/11/12 12:06:20;;;;;;;4.50;4.20;;;;;;;22.17;37.87;96371.59;6175957;28;103273;-80
2022/11/12 12:09:33;;;;;;;4.93;4.53;;;;;;;22.19;38.48;96374.81;6177413;28;102805;-80
2022/11/12 12:12:55;;;;;;;4.70;4.30;;;;;;;22.18;38.21;96367.88;6178890;28;102643;-80
2022/11/12 12:16:25;;;;;;;4.90;4.50;;;;;;;22.15;37.99;96357.72;6171404;28;102699;-80
2022/11/12 12:19:41;;;;;;;4.50;4.10;;;;;;;22.17;38.03;96362.78;6176030;28;104151;-81
2022/11/12 12:22:49;;;;;;;5.03;4.63;;;;;;;22.01;38.55;96346.88;6176799;28;103423;-81
2022/11/12 12:25:56;;;;;;;4.47;4.17;;;;;;;22.16;38.04;96362.00;6170569;28;103662;-80
2022/11/12 12:29:14;;;;;;;4.70;4.33;;;;;;;22.14;38.30;96363.34;6175059;28;105543;-81
2022/11/12 12:32:23;;;;;;;4.20;3.90;;;;;;;22.15;38.10;96371.06;6174847;28;103051;-80
2022/11/12 12:35:32;;;;;;;4.03;3.73;;;;;;;22.14;38.34;96372.13;6173159;28;103208;-80
2022/11/12 12:38:42;;;;;;;4.50;4.10;;;;;;;22.12;38.09;96360.94;6168016;28;103269;-81
2022/11/12 12:41:53;;;;;;;4.63;4.30;;;;;;;22.14;38.35;96371.34;6174519;28;106139;-80
2022/11/12 12:45:13;;;;;;;4.40;4.10;;;;;;;22.14;38.37;96374.81;6174529;28;105975;-80
2022/11/12 12:48:20;;;;;;;4.17;3.87;;;;;;;22.11;38.50;96376.16;6168145;28;103147;-80
2022/11/12 12:51:28;;;;;;;4.77;4.37;;;;;;;22.10;38.08;96374.56;6173010;28;102665;-80
2022/11/12 12:54:58;;;;;;;4.87;4.50;;;;;;;22.15;38.31;96380.94;6172896;28;103409;-79
2022/11/12 12:58:01;;;;;;;4.57;4.20;;;;;;;22.13;38.13;96378.53;6173121;28;103336;-79
2022/11/12 13:01:25;;;;;;;4.30;4.00;;;;;;;22.13;38.25;96373.22;6167473;28;103054;-79
2022/11/12 13:04:52;;;;;;;4.10;3.80;;;;;;;22.11;38.28;96376.16;6173344;28;102909;-80
2022/11/12 13:08:01;;;;;;;4.40;4.00;;;;;;;22.05;38.19;96365.78;6173640;28;102491;-80
2022/11/12 13:11:04;;;;;;;4.30;4.00;;;;;;;22.11;38.57;96384.16;6167063;28;102971;-80
2022/11/12 13:14:41;;;;;;;4.37;4.07;;;;;;;22.10;38.64;96382.56;6172599;28;104930;-80
2022/11/12 13:17:54;;;;;;;4.27;3.97;;;;;;;22.12;38.09;96390.28;6171853;28;103406;-80
2022/11/12 13:21:15;;;;;;;4.10;3.80;;;;;;;22.06;38.71;96378.84;6172233;28;102742;-80
2022/11/12 13:24:59;;;;;;;4.60;4.20;;;;;;;22.09;38.14;96383.63;6169519;28;103906;-79
2022/11/12 13:28:07;;;;;;;4.30;3.90;;;;;;;22.11;38.06;96394.03;6172627;28;103110;-80
2022/11/12 13:31:27;;;;;;;4.27;3.97;;;;;;;22.09;38.29;96386.28;6172801;28;103858;-79
2022/11/12 13:34:33;;;;;;;4.20;3.90;;;;;;;22.07;38.65;96401.75;6167834;28;103167;-79
2022/11/12 13:37:43;;;;;;;4.00;3.70;;;;;;;22.04;38.64;96388.19;6172154;28;103058;-80
2022/11/12 13:40:52;;;;;;;4.20;3.90;;;;;;;22.08;38.15;96392.69;6172739;28;102582;-80
2022/11/12 13:43:57;;;;;;;3.83;3.53;;;;;;;22.10;38.22;96395.88;6172022;28;104369;-81
2022/11/12 13:47:00;;;;;;;3.77;3.47;;;;;;;22.07;38.43;96396.44;6168467;28;103078;-80
2022/11/12 13:50:08;;;;;;;4.03;3.73;;;;;;;22.06;38.42;96389.50;6171941;28;102777;-80
2022/11/12 13:53:19;;;;;;;3.80;3.50;;;;;;;22.10;38.15;96387.88;6173636;28;106557;-79
2022/11/12 13:56:29;;;;;;;3.73;3.43;;;;;;;22.06;38.45;96380.72;6165546;28;103041;-79
2022/11/12 13:59:32;;;;;;;3.67;3.37;;;;;;;22.09;38.41;96396.97;6170020;28;103072;-80
2022/11/12 14:02:37;;;;;;;3.87;3.57;;;;;;;22.06;38.23;96378.84;6170445;28;106487;-80
2022/11/12 14:05:48;;;;;;;3.87;3.57;;;;;;;22.05;38.42;96387.91;6170412;28;103042;-80
2022/11/12 14:09:20;;;;;;;3.73;3.43;;;;;;;22.06;38.50;96384.19;6165635;28;103699;-80
2022/11/12 14:12:45;;;;;;;4.33;4.03;;;;;;;22.10;38.49;96387.88;6172737;28;103247;-80
2022/11/12 14:16:14;;;;;;;3.57;3.37;;;;;;;22.09;38.45;96386.28;6172020;28;102649;-80
2022/11/12 14:19:54;;;;;;;3.60;3.37;;;;;;;22.08;38.36;96383.91;6117457;28;103304;-80
2022/11/12 14:23:09;;;;;;;3.47;3.27;;;;;;;22.08;38.06;96382.03;6124544;28;103026;-80
2022/11/12 14:26:13;;;;;;;3.80;3.50;;;;;;;22.07;38.50;96383.09;6123531;28;103253;-79
2022/11/12 14:29:19;;;;;;;3.90;3.60;;;;;;;22.11;38.18;96386.03;6125072;28;102679;-81
2022/11/12 14:32:22;;;;;;;3.30;3.10;;;;;;;22.08;38.05;96386.56;6123818;28;103691;-80
2022/11/12 14:35:33;;;;;;;3.50;3.20;;;;;;;22.07;38.47;96387.63;6127632;28;105211;-80
2022/11/12 14:38:39;;;;;;;3.80;3.50;;;;;;;22.06;38.29;96378.84;6127042;28;106234;-79
2022/11/12 14:41:46;;;;;;;3.50;3.20;;;;;;;22.00;37.91;96374.59;6121727;28;103201;-80
2022/11/12 14:44:51;;;;;;;3.20;3.00;;;;;;;22.08;38.00;96381.25;6127676;28;104180;-79
2022/11/12 14:47:54;;;;;;;3.50;3.20;;;;;;;22.05;38.44;96384.44;6127004;28;102648;-81
2022/11/12 14:51:04;;;;;;;3.70;3.40;;;;;;;22.05;38.41;96376.47;6128414;28;104818;-80
2022/11/12 14:54:16;;;;;;;3.30;3.10;;;;;;;22.05;38.16;96384.44;6122052;28;103268;-81
2022/11/12 14:57:24;;;;;;;3.80;3.37;;;;;;;22.06;38.32;96389.50;6128661;28;102591;-81
2022/11/12 15:00:40;;;;;;;3.63;3.37;;;;;;;22.08;37.98;96398.03;6127972;28;103039;-80